createdAt,value
2023-12-10T00:01:06.293Z,1.69
2023-12-10T00:02:22.947Z,1.77
2023-12-10T00:03:40.052Z,2.3
2023-12-10T00:04:56.996Z,1.57
2023-12-10T00:06:14.750Z,2.4
2023-12-10T00:07:30.961Z,1.81
2023-12-10T00:08:48.042Z,2.02
2023-12-10T00:10:05.020Z,1.75
2023-12-10T00:11:22.008Z,2.01
2023-12-10T00:12:39.274Z,2.53
2023-12-10T00:13:56.004Z,3.02
2023-12-10T00:15:13.094Z,2.04
2023-12-10T00:16:30.094Z,2.34
2023-12-10T00:17:47.032Z,2.44
2023-12-10T00:19:04.100Z,1.63
2023-12-10T00:20:21.007Z,2.41
2023-12-10T00:21:38.235Z,1.49
2023-12-10T00:22:55.027Z,2.03
2023-12-10T00:24:12.081Z,1.85
2023-12-10T00:25:29.063Z,2.02
2023-12-10T00:26:46.120Z,1.63
2023-12-10T00:28:03.049Z,1.87
2023-12-10T00:29:20.055Z,2
2023-12-10T00:30:37.082Z,1.71
2023-12-10T00:31:54.127Z,1.3
2023-12-10T00:33:11.195Z,2.06
2023-12-10T00:34:28.166Z,2.06
2023-12-10T00:35:45.067Z,2.23
2023-12-10T00:37:02.052Z,2.11
2023-12-10T00:38:21.908Z,1.89
2023-12-10T00:39:38.067Z,1.24
2023-12-10T00:40:55.093Z,0.84
2023-12-10T00:42:12.070Z,1.62
2023-12-10T00:43:30.442Z,0.89
2023-12-10T00:44:47.148Z,1.62
2023-12-10T00:46:04.054Z,0.96
2023-12-10T00:47:21.077Z,1.75
2023-12-10T00:48:38.207Z,1.24
2023-12-10T00:49:55.546Z,1.62
2023-12-10T00:51:12.229Z,1.33
2023-12-10T00:52:29.452Z,1.85
2023-12-10T00:53:46.111Z,1.75
2023-12-10T00:55:03.080Z,1.16
2023-12-10T00:56:20.164Z,0.76
2023-12-10T00:57:37.148Z,1.18
2023-12-10T00:58:54.178Z,1.26
2023-12-10T01:00:13.428Z,1.31
2023-12-10T01:01:28.196Z,1.44
2023-12-10T01:02:45.046Z,1.81
2023-12-10T01:04:02.209Z,1.36
2023-12-10T01:05:19.103Z,1.29
2023-12-10T01:06:36.140Z,1.78
2023-12-10T01:07:53.090Z,1.58
2023-12-10T01:09:10.210Z,1.63
2023-12-10T01:10:27.131Z,2.08
2023-12-10T01:11:44.197Z,1.44
2023-12-10T01:13:01.104Z,2.12
2023-12-10T01:14:18.146Z,1.75
2023-12-10T01:15:35.238Z,1.29
2023-12-10T01:16:52.245Z,1.31
2023-12-10T01:18:09.185Z,1.43
2023-12-10T01:19:26.637Z,1.88
2023-12-10T01:20:43.150Z,1.87
2023-12-10T01:22:03.123Z,1.31
2023-12-10T01:23:18.191Z,1.15
2023-12-10T01:24:35.094Z,1.14
2023-12-10T01:25:52.075Z,1.35
2023-12-10T01:27:09.225Z,1.12
2023-12-10T01:28:26.088Z,1.48
2023-12-10T01:29:43.255Z,1.72
2023-12-10T01:31:00.080Z,1.29
2023-12-10T01:32:17.110Z,1.58
2023-12-10T01:33:34.482Z,1.64
2023-12-10T01:34:51.416Z,1.54
2023-12-10T01:36:08.211Z,1.04
2023-12-10T01:37:25.223Z,1.29
2023-12-10T01:38:42.259Z,1
2023-12-10T01:39:59.194Z,0.92
2023-12-10T01:41:16.119Z,0.95
2023-12-10T01:42:33.159Z,0.97
2023-12-10T01:43:50.137Z,0.8
2023-12-10T01:45:07.190Z,1.11
2023-12-10T01:46:24.157Z,1.19
2023-12-10T01:47:41.132Z,1.06
2023-12-10T01:48:58.728Z,1.57
2023-12-10T01:50:15.132Z,1.39
2023-12-10T01:51:32.233Z,1.05
2023-12-10T01:52:49.157Z,1.19
2023-12-10T01:54:06.199Z,0.8
2023-12-10T01:55:23.168Z,0.54
2023-12-10T01:56:44.519Z,0.89
2023-12-10T01:57:57.209Z,0.83
2023-12-10T01:59:14.122Z,0.69
2023-12-10T02:00:31.268Z,1.24
2023-12-10T02:01:48.208Z,1.28
2023-12-10T02:03:05.129Z,1.35
2023-12-10T02:04:22.290Z,1.16
2023-12-10T02:05:39.838Z,0.87
2023-12-10T02:06:57.376Z,1.48
2023-12-10T02:08:14.112Z,1.42
2023-12-10T02:09:31.241Z,1.72
2023-12-10T02:10:48.185Z,1.64
2023-12-10T02:12:05.329Z,1.37
2023-12-10T02:13:22.148Z,1.26
2023-12-10T02:14:39.376Z,1.46
2023-12-10T02:15:56.291Z,0.96
2023-12-10T02:17:13.234Z,1.45
2023-12-10T02:18:30.283Z,1.04
2023-12-10T02:19:47.317Z,0.98
2023-12-10T02:21:04.797Z,0.96
2023-12-10T02:22:22.309Z,1.21
2023-12-10T02:23:39.283Z,1.28
2023-12-10T02:24:56.172Z,1.41
2023-12-10T02:26:13.321Z,1.09
2023-12-10T02:27:30.913Z,0.92
2023-12-10T02:28:48.268Z,1.12
2023-12-10T02:30:05.200Z,0.77
2023-12-10T02:31:22.301Z,0.62
2023-12-10T02:32:39.386Z,0.94
2023-12-10T02:33:56.321Z,0.9
2023-12-10T02:35:13.130Z,0.92
2023-12-10T02:36:30.767Z,1.03
2023-12-10T02:37:47.177Z,0.95
2023-12-10T02:39:04.240Z,1.04
2023-12-10T02:40:21.227Z,1.1
2023-12-10T02:41:38.242Z,0.75
2023-12-10T02:42:55.307Z,0.87
2023-12-10T02:44:12.261Z,0.81
2023-12-10T02:45:29.390Z,1.08
2023-12-10T02:46:46.416Z,1.23
2023-12-10T02:48:03.466Z,1.65
2023-12-10T02:49:20.259Z,1.27
2023-12-10T02:50:37.285Z,1.55
2023-12-10T02:51:54.256Z,1.32
2023-12-10T02:53:11.198Z,1.39
2023-12-10T02:54:28.300Z,0.84
2023-12-10T02:55:45.303Z,1.14
2023-12-10T02:57:02.389Z,1.41
2023-12-10T02:58:19.294Z,1.3
2023-12-10T02:59:37.439Z,1.54
2023-12-10T03:00:54.307Z,1.44
2023-12-10T03:02:11.301Z,1.37
2023-12-10T03:03:28.396Z,1.65
2023-12-10T03:04:45.309Z,1.56
2023-12-10T03:06:02.695Z,1.46
2023-12-10T03:07:20.924Z,1.43
2023-12-10T03:08:42.676Z,1.75
2023-12-10T03:10:00.293Z,1.37
2023-12-10T03:11:17.263Z,1.42
2023-12-10T03:12:35.040Z,1.59
2023-12-10T03:13:52.239Z,1.74
2023-12-10T03:15:09.409Z,1.29
2023-12-10T03:16:26.299Z,1.48
2023-12-10T03:17:43.480Z,1.52
2023-12-10T03:19:01.557Z,1.44
2023-12-10T03:20:18.636Z,1.79
2023-12-10T03:21:35.336Z,1.39
2023-12-10T03:22:52.358Z,1.81
2023-12-10T03:24:10.513Z,1.11
2023-12-10T03:25:27.738Z,1.09
2023-12-10T03:26:44.339Z,1.3
2023-12-10T03:28:01.820Z,1.1
2023-12-10T03:29:19.127Z,1.49
2023-12-10T03:30:36.289Z,1.66
2023-12-10T03:31:53.516Z,1.11
2023-12-10T03:33:10.709Z,1.32
2023-12-10T03:34:27.457Z,1.02
2023-12-10T03:35:44.280Z,0.98
2023-12-10T03:37:01.457Z,1.24
2023-12-10T03:38:18.312Z,1.04
2023-12-10T03:39:35.388Z,1.25
2023-12-10T03:40:52.271Z,0.83
2023-12-10T03:42:09.915Z,0.93
2023-12-10T03:43:27.485Z,1.31
2023-12-10T03:44:44.234Z,1.6
2023-12-10T03:46:01.605Z,1.33
2023-12-10T03:47:18.292Z,1.08
2023-12-10T03:48:35.522Z,0.93
2023-12-10T03:49:53.216Z,1
2023-12-10T03:51:10.269Z,1.39
2023-12-10T03:52:27.498Z,1.3
2023-12-10T03:53:44.378Z,1.24
2023-12-10T03:55:01.419Z,0.76
2023-12-10T03:56:19.273Z,0.93
2023-12-10T03:57:36.304Z,0.91
2023-12-10T03:58:55.168Z,1.05
2023-12-10T04:00:12.591Z,1.09
2023-12-10T04:01:29.461Z,0.87
2023-12-10T04:02:46.435Z,1.1
2023-12-10T04:04:03.419Z,1.22
2023-12-10T04:05:20.289Z,0.8
2023-12-10T04:06:37.425Z,0.94
2023-12-10T04:07:54.312Z,0.69
2023-12-10T04:09:11.936Z,0.74
2023-12-10T04:10:29.378Z,0.68
2023-12-10T04:11:46.492Z,0.8
2023-12-10T04:13:03.400Z,0.72
2023-12-10T04:14:20.377Z,0.83
2023-12-10T04:15:37.468Z,0.76
2023-12-10T04:16:54.315Z,0.73
2023-12-10T04:18:11.351Z,0.77
2023-12-10T04:19:29.669Z,0.53
2023-12-10T04:20:46.770Z,0.71
2023-12-10T04:22:03.880Z,0.58
2023-12-10T04:23:21.309Z,0.65
2023-12-10T04:24:38.442Z,0.78
2023-12-10T04:25:55.410Z,0.53
2023-12-10T04:27:12.436Z,0.62
2023-12-10T04:28:29.371Z,0.53
2023-12-10T04:29:46.353Z,0.61
2023-12-10T04:31:03.366Z,0.95
2023-12-10T04:32:20.286Z,0.72
2023-12-10T04:33:37.424Z,0.73
2023-12-10T04:34:54.691Z,0.86
2023-12-10T04:36:12.007Z,0.55
2023-12-10T04:37:29.374Z,0.38
2023-12-10T04:38:46.578Z,0.62
2023-12-10T04:40:03.419Z,0.66
2023-12-10T04:41:20.948Z,0.38
2023-12-10T04:42:38.389Z,0.71
2023-12-10T04:43:55.376Z,0.55
2023-12-10T04:45:12.345Z,0.83
2023-12-10T04:46:29.379Z,0.6
2023-12-10T04:47:46.493Z,0.85
2023-12-10T04:49:03.710Z,0.65
2023-12-10T04:50:20.327Z,0.58
2023-12-10T04:51:37.486Z,0.67
2023-12-10T04:52:54.395Z,0.6
2023-12-10T04:54:11.322Z,0.73
2023-12-10T04:55:28.363Z,0.57
2023-12-10T04:56:45.394Z,0.86
2023-12-10T04:58:02.412Z,0.8
2023-12-10T04:59:19.390Z,0.79
2023-12-10T05:00:36.445Z,0.83
2023-12-10T05:01:53.972Z,1.13
2023-12-10T05:03:11.409Z,0.73
2023-12-10T05:04:29.185Z,1.14
2023-12-10T05:05:46.404Z,0.56
2023-12-10T05:07:03.420Z,0.7
2023-12-10T05:08:20.358Z,0.78
2023-12-10T05:09:37.422Z,0.66
2023-12-10T05:10:54.377Z,0.94
2023-12-10T05:12:11.663Z,0.55
2023-12-10T05:13:28.487Z,0.73
2023-12-10T05:14:45.465Z,0.62
2023-12-10T05:16:02.419Z,1.07
2023-12-10T05:17:19.416Z,0.63
2023-12-10T05:18:36.605Z,0.38
2023-12-10T05:19:53.394Z,0.76
2023-12-10T05:21:10.447Z,0.88
2023-12-10T05:22:27.761Z,0.68
2023-12-10T05:23:45.050Z,0.77
2023-12-10T05:25:02.485Z,0.74
2023-12-10T05:26:19.515Z,0.72
2023-12-10T05:27:36.463Z,0.78
2023-12-10T05:28:53.413Z,0.83
2023-12-10T05:30:10.443Z,0.78
2023-12-10T05:31:27.610Z,0.85
2023-12-10T05:32:44.512Z,0.47
2023-12-10T05:34:01.535Z,0.66
2023-12-10T05:35:18.414Z,0.98
2023-12-10T05:36:35.548Z,0.82
2023-12-10T05:37:52.445Z,0.82
2023-12-10T05:39:09.411Z,0.9
2023-12-10T05:40:26.381Z,0.73
2023-12-10T05:41:43.454Z,0.8
2023-12-10T05:43:00.657Z,0.88
2023-12-10T05:44:17.494Z,0.74
2023-12-10T05:45:34.419Z,0.87
2023-12-10T05:46:51.412Z,0.94
2023-12-10T05:48:08.549Z,0.76
2023-12-10T05:49:25.575Z,0.97
2023-12-10T05:50:42.454Z,1.16
2023-12-10T05:51:59.532Z,0.93
2023-12-10T05:53:16.438Z,0.71
2023-12-10T05:54:33.527Z,1.1
2023-12-10T05:55:50.415Z,0.83
2023-12-10T05:57:07.493Z,0.84
2023-12-10T05:58:24.473Z,1.11
2023-12-10T05:59:42.125Z,0.68
2023-12-10T06:00:59.577Z,0.77
2023-12-10T06:02:17.000Z,1.03
2023-12-10T06:03:33.490Z,0.76
2023-12-10T06:04:50.517Z,0.4
2023-12-10T06:06:07.562Z,0.62
2023-12-10T06:07:24.504Z,0.81
2023-12-10T06:08:41.484Z,0.8
2023-12-10T06:09:58.497Z,0.55
2023-12-10T06:11:15.573Z,0.8
2023-12-10T06:12:33.095Z,0.82
2023-12-10T06:13:49.565Z,0.82
2023-12-10T06:15:06.433Z,0.69
2023-12-10T06:16:23.846Z,1.04
2023-12-10T06:17:40.615Z,0.64
2023-12-10T06:18:57.653Z,0.63
2023-12-10T06:20:14.471Z,0.83
2023-12-10T06:21:31.599Z,0.88
2023-12-10T06:22:48.574Z,0.99
2023-12-10T06:24:05.538Z,0.85
2023-12-10T06:25:22.584Z,0.77
2023-12-10T06:26:39.541Z,0.8
2023-12-10T06:27:57.632Z,0.78
2023-12-10T06:29:14.508Z,0.99
2023-12-10T06:30:31.665Z,0.92
2023-12-10T06:31:48.536Z,1.1
2023-12-10T06:33:05.567Z,0.8
2023-12-10T06:34:22.723Z,0.46
2023-12-10T06:35:39.460Z,0.7
2023-12-10T06:36:56.618Z,1.02
2023-12-10T06:38:13.634Z,0.88
2023-12-10T06:39:30.505Z,0.82
2023-12-10T06:40:47.549Z,0.76
2023-12-10T06:42:04.557Z,1.19
2023-12-10T06:43:21.551Z,0.78
2023-12-10T06:44:38.521Z,1.14
2023-12-10T06:45:55.661Z,0.91
2023-12-10T06:47:12.460Z,1.09
2023-12-10T06:48:29.778Z,1.19
2023-12-10T06:49:46.733Z,1.08
2023-12-10T06:51:03.527Z,1.16
2023-12-10T06:52:20.497Z,1.13
2023-12-10T06:53:37.541Z,0.96
2023-12-10T06:54:55.857Z,0.87
2023-12-10T06:56:11.532Z,0.83
2023-12-10T06:57:28.549Z,0.94
2023-12-10T06:58:45.556Z,0.92
2023-12-10T07:00:02.691Z,1.06
2023-12-10T07:01:19.678Z,1.07
2023-12-10T07:02:36.564Z,0.9
2023-12-10T07:03:53.577Z,0.84
2023-12-10T07:05:10.718Z,0.93
2023-12-10T07:06:27.633Z,0.8
2023-12-10T07:07:44.572Z,0.79
2023-12-10T07:09:01.603Z,0.85
2023-12-10T07:10:18.564Z,0.93
2023-12-10T07:11:35.665Z,0.78
2023-12-10T07:12:52.532Z,0.93
2023-12-10T07:14:09.516Z,1.12
2023-12-10T07:15:27.816Z,1.7
2023-12-10T07:16:44.624Z,1.28
2023-12-10T07:18:03.021Z,1.22
2023-12-10T07:19:19.600Z,1.41
2023-12-10T07:20:36.566Z,1.23
2023-12-10T07:21:53.596Z,1.14
2023-12-10T07:23:10.792Z,1.12
2023-12-10T07:24:27.625Z,0.84
2023-12-10T07:25:44.529Z,0.82
2023-12-10T07:27:01.748Z,0.83
2023-12-10T07:28:18.869Z,0.72
2023-12-10T07:29:35.614Z,0.95
2023-12-10T07:30:52.616Z,0.93
2023-12-10T07:32:09.599Z,0.88
2023-12-10T07:33:26.767Z,1.11
2023-12-10T07:34:43.723Z,0.91
2023-12-10T07:36:00.555Z,1.02
2023-12-10T07:37:17.652Z,0.95
2023-12-10T07:38:34.668Z,1
2023-12-10T07:39:52.188Z,0.93
2023-12-10T07:41:09.895Z,1.1
2023-12-10T07:42:26.774Z,1
2023-12-10T07:43:43.596Z,0.97
2023-12-10T07:45:00.644Z,1.22
2023-12-10T07:46:17.635Z,1.26
2023-12-10T07:47:34.723Z,0.95
2023-12-10T07:48:52.929Z,1.2
2023-12-10T07:50:09.861Z,1.28
2023-12-10T07:51:26.699Z,1.28
2023-12-10T07:52:46.565Z,1.29
2023-12-10T07:54:06.223Z,0.98
2023-12-10T07:55:24.052Z,0.93
2023-12-10T07:56:41.354Z,1.11
2023-12-10T07:58:00.730Z,0.89
2023-12-10T07:59:17.634Z,0.99
2023-12-10T08:00:35.167Z,0.94
2023-12-10T08:01:51.717Z,1.39
2023-12-10T08:03:08.717Z,1.26
2023-12-10T08:04:25.901Z,0.86
2023-12-10T08:05:42.658Z,1.07
2023-12-10T08:06:59.664Z,1.05
2023-12-10T08:08:16.587Z,1.08
2023-12-10T08:09:33.631Z,1.02
2023-12-10T08:10:52.524Z,0.84
2023-12-10T08:12:07.611Z,0.96
2023-12-10T08:13:24.775Z,1.01
2023-12-10T08:14:41.903Z,0.85
2023-12-10T08:15:58.949Z,1.16
2023-12-10T08:17:16.082Z,0.88
2023-12-10T08:18:34.155Z,0.95
2023-12-10T08:19:50.990Z,0.85
2023-12-10T08:21:07.983Z,0.91
2023-12-10T08:22:24.897Z,0.94
2023-12-10T08:23:42.232Z,1.31
2023-12-10T08:25:00.315Z,0.94
2023-12-10T08:26:16.735Z,1.11
2023-12-10T08:27:33.678Z,1.07
2023-12-10T08:28:50.726Z,1.09
2023-12-10T08:30:07.816Z,0.95
2023-12-10T08:31:24.648Z,0.97
2023-12-10T08:32:42.065Z,0.73
2023-12-10T08:33:58.791Z,1.02
2023-12-10T08:35:15.600Z,0.71
2023-12-10T08:36:32.749Z,0.97
2023-12-10T08:37:49.611Z,0.86
2023-12-10T08:39:06.716Z,1.14
2023-12-10T08:40:23.666Z,1.12
2023-12-10T08:41:40.814Z,1.11
2023-12-10T08:42:57.819Z,1.03
2023-12-10T08:44:15.069Z,0.92
2023-12-10T08:45:32.289Z,0.91
2023-12-10T08:46:49.292Z,0.94
2023-12-10T08:48:06.801Z,1.01
2023-12-10T08:49:23.766Z,0.9
2023-12-10T08:50:40.703Z,1
2023-12-10T08:51:57.883Z,1.06
2023-12-10T08:53:14.726Z,1.35
2023-12-10T08:54:31.810Z,1
2023-12-10T08:55:50.059Z,1.22
2023-12-10T08:57:06.684Z,1.11
2023-12-10T08:58:23.952Z,1.48
2023-12-10T08:59:40.699Z,0.9
2023-12-10T09:00:57.884Z,1.12
2023-12-10T09:02:14.800Z,1.2
2023-12-10T09:03:32.011Z,1.09
2023-12-10T09:04:48.788Z,1.14
2023-12-10T09:06:05.764Z,0.72
2023-12-10T09:07:22.775Z,0.73
2023-12-10T09:08:39.814Z,0.78
2023-12-10T09:10:02.006Z,0.93
2023-12-10T09:11:13.710Z,0.68
2023-12-10T09:12:31.199Z,0.92
2023-12-10T09:13:47.780Z,1.19
2023-12-10T09:15:05.196Z,1.1
2023-12-10T09:16:21.799Z,1.17
2023-12-10T09:17:38.806Z,1
2023-12-10T09:18:56.141Z,0.86
2023-12-10T09:20:12.950Z,0.99
2023-12-10T09:21:29.807Z,0.76
2023-12-10T09:22:46.818Z,1.19
2023-12-10T09:24:03.821Z,0.85
2023-12-10T09:25:20.836Z,1.04
2023-12-10T09:26:37.993Z,1.01
2023-12-10T09:27:55.151Z,1.27
2023-12-10T09:29:11.773Z,1.3
2023-12-10T09:30:29.007Z,1.33
2023-12-10T09:31:45.746Z,1.03
2023-12-10T09:33:02.855Z,1.11
2023-12-10T09:34:20.773Z,1.15
2023-12-10T09:35:36.858Z,1.06
2023-12-10T09:36:54.160Z,0.64
2023-12-10T09:38:10.726Z,1.26
2023-12-10T09:39:28.328Z,0.84
2023-12-10T09:40:45.794Z,1.22
2023-12-10T09:42:02.827Z,0.86
2023-12-10T09:43:19.824Z,1.23
2023-12-10T09:44:36.821Z,1.26
2023-12-10T09:45:53.773Z,1.04
2023-12-10T09:47:10.722Z,1.15
2023-12-10T09:48:28.270Z,1.01
2023-12-10T09:49:44.780Z,1.76
2023-12-10T09:51:01.802Z,1.28
2023-12-10T09:52:18.772Z,0.99
2023-12-10T09:53:35.771Z,1.27
2023-12-10T09:54:52.841Z,1.16
2023-12-10T09:56:09.760Z,0.78
2023-12-10T09:57:26.779Z,0.8
2023-12-10T09:58:43.798Z,0.73
2023-12-10T10:00:00.780Z,0.93
2023-12-10T10:01:18.800Z,1.33
2023-12-10T10:02:36.179Z,1.1
2023-12-10T10:03:52.943Z,0.87
2023-12-10T10:05:10.030Z,1.34
2023-12-10T10:06:26.765Z,0.72
2023-12-10T10:07:43.764Z,0.79
2023-12-10T10:09:00.756Z,0.99
2023-12-10T10:10:17.833Z,2.17
2023-12-10T10:11:34.737Z,1.22
2023-12-10T10:12:51.817Z,1.36
2023-12-10T10:14:08.833Z,1.34
2023-12-10T10:15:25.866Z,1.77
2023-12-10T10:16:43.035Z,1.2
2023-12-10T10:18:00.113Z,1.32
2023-12-10T10:19:16.929Z,1.73
2023-12-10T10:20:33.735Z,1.35
2023-12-10T10:21:50.843Z,0.92
2023-12-10T10:23:08.116Z,1.15
2023-12-10T10:24:24.816Z,1.31
2023-12-10T10:25:42.106Z,1.13
2023-12-10T10:26:59.152Z,0.87
2023-12-10T10:28:16.020Z,1.36
2023-12-10T10:29:32.785Z,1.18
2023-12-10T10:30:49.885Z,1.3
2023-12-10T10:32:06.799Z,1.36
2023-12-10T10:33:23.893Z,1.66
2023-12-10T10:34:40.890Z,1.31
2023-12-10T10:35:57.892Z,1.48
2023-12-10T10:37:14.820Z,2.67
2023-12-10T10:38:32.525Z,1.92
2023-12-10T10:39:49.856Z,2.36
2023-12-10T10:41:06.852Z,3.65
2023-12-10T10:42:23.961Z,2.43
2023-12-10T10:43:40.781Z,2.47
2023-12-10T10:44:57.871Z,2.66
2023-12-10T10:46:14.857Z,2.05
2023-12-10T10:47:32.757Z,1.49
2023-12-10T10:48:49.201Z,2.01
2023-12-10T10:50:18.391Z,2.06
2023-12-10T10:51:22.814Z,2.24
2023-12-10T10:52:40.515Z,1.61
2023-12-10T10:53:57.802Z,1.71
2023-12-10T10:55:14.906Z,1.17
2023-12-10T10:56:31.886Z,1.99
2023-12-10T10:57:48.996Z,1.55
2023-12-10T10:59:05.823Z,1.54
2023-12-10T11:00:22.943Z,1.23
2023-12-10T11:01:39.977Z,1.19
2023-12-10T11:02:56.897Z,1.19
2023-12-10T11:04:13.954Z,1.27
2023-12-10T11:05:31.077Z,1.44
2023-12-10T11:06:48.058Z,1.74
2023-12-10T11:08:04.976Z,1.35
2023-12-10T11:09:21.893Z,1.1
2023-12-10T11:10:38.855Z,1.13
2023-12-10T11:11:55.806Z,1.07
2023-12-10T11:13:12.826Z,1.59
2023-12-10T11:14:29.886Z,1.54
2023-12-10T11:15:46.973Z,1.27
2023-12-10T11:17:03.866Z,1
2023-12-10T11:18:20.957Z,0.82
2023-12-10T11:19:38.009Z,0.95
2023-12-10T11:20:54.847Z,0.73
2023-12-10T11:22:11.825Z,0.55
2023-12-10T11:23:30.528Z,0.63
2023-12-10T11:24:45.869Z,0.9
2023-12-10T11:26:02.873Z,0.74
2023-12-10T11:27:19.914Z,0.38
2023-12-10T11:28:36.964Z,0.84
2023-12-10T11:29:53.814Z,0.55
2023-12-10T11:31:11.065Z,0.74
2023-12-10T11:32:28.071Z,0.58
2023-12-10T11:33:45.086Z,0.51
2023-12-10T11:35:02.116Z,0.54
2023-12-10T11:36:34.448Z,0.65
2023-12-10T11:37:35.953Z,0.66
2023-12-10T11:38:52.875Z,0.7
2023-12-10T11:40:09.970Z,0.6
2023-12-10T11:41:26.848Z,0.64
2023-12-10T11:42:43.928Z,0.46
2023-12-10T11:44:00.897Z,0.1
2023-12-10T11:45:17.967Z,0.52
2023-12-10T11:46:37.836Z,0.58
2023-12-10T11:47:52.511Z,0.61
2023-12-10T11:49:09.113Z,0.64
2023-12-10T11:50:25.874Z,0.58
2023-12-10T11:51:42.986Z,0.67
2023-12-10T11:52:59.940Z,0.72
2023-12-10T11:54:16.937Z,0.51
2023-12-10T11:55:33.884Z,0.52
2023-12-10T11:56:50.928Z,0.81
2023-12-10T11:58:07.986Z,0.72
2023-12-10T11:59:24.927Z,0.91
2023-12-10T12:00:42.093Z,0.61
2023-12-10T12:01:58.969Z,0.68
2023-12-10T12:03:16.031Z,0.84
2023-12-10T12:04:32.924Z,0.94
2023-12-10T12:05:49.956Z,1.21
2023-12-10T12:07:07.073Z,1.15
2023-12-10T12:08:23.900Z,0.67
2023-12-10T12:09:40.974Z,0.76
2023-12-10T12:10:57.926Z,0.67
2023-12-10T12:12:14.925Z,0.57
2023-12-10T12:13:31.986Z,0.38
2023-12-10T12:14:48.913Z,0.64
2023-12-10T12:16:05.988Z,0.61
2023-12-10T12:17:23.036Z,0.76
2023-12-10T12:18:39.958Z,0.52
2023-12-10T12:19:57.014Z,0.67
2023-12-10T12:21:13.979Z,0.78
2023-12-10T12:22:31.076Z,0.68
2023-12-10T12:23:47.929Z,0.55
2023-12-10T12:25:05.032Z,0.58
2023-12-10T12:26:21.935Z,0.64
2023-12-10T12:27:38.940Z,0.52
2023-12-10T12:28:55.975Z,0.61
2023-12-10T12:30:13.390Z,0.47
2023-12-10T12:31:29.969Z,0.48
2023-12-10T12:32:47.140Z,0.3
2023-12-10T12:34:04.939Z,0.45
2023-12-10T12:35:21.990Z,0.65
2023-12-10T12:36:38.999Z,0.68
2023-12-10T12:37:55.995Z,0.52
2023-12-10T12:39:12.949Z,0.59
2023-12-10T12:40:29.970Z,0.61
2023-12-10T12:41:47.057Z,0.9
2023-12-10T12:43:04.107Z,0.75
2023-12-10T12:44:20.943Z,0.48
2023-12-10T12:45:38.074Z,0.66
2023-12-10T12:46:54.969Z,0.54
2023-12-10T12:48:12.086Z,0.72
2023-12-10T12:49:29.065Z,0.68
2023-12-10T12:50:46.031Z,0.67
2023-12-10T12:52:03.008Z,0.52
2023-12-10T12:53:19.965Z,0.9
2023-12-10T12:54:37.022Z,0.66
2023-12-10T12:55:53.957Z,0.66
2023-12-10T12:57:11.002Z,0.68
2023-12-10T12:58:29.973Z,0.66
2023-12-10T12:59:46.975Z,0.34
2023-12-10T13:01:04.164Z,0.37
2023-12-10T13:02:21.077Z,0.56
2023-12-10T13:03:38.098Z,0.39
2023-12-10T13:04:55.023Z,0.35
2023-12-10T13:06:12.006Z,0.37
2023-12-10T13:07:29.257Z,0.61
2023-12-10T13:08:45.971Z,0.64
2023-12-10T13:10:03.752Z,0.47
2023-12-10T13:11:19.995Z,0.57
2023-12-10T13:12:37.111Z,0.57
2023-12-10T13:13:53.978Z,0.44
2023-12-10T13:15:11.120Z,0.29
2023-12-10T13:16:28.016Z,0.33
2023-12-10T13:17:45.328Z,0.51
2023-12-10T13:19:02.116Z,0.51
2023-12-10T13:20:19.062Z,0.64
2023-12-10T13:21:36.108Z,0.77
2023-12-10T13:22:53.007Z,0.43
2023-12-10T13:24:10.042Z,0.48
2023-12-10T13:25:27.012Z,0.69
2023-12-10T13:26:44.046Z,0.67
2023-12-10T13:28:01.057Z,0.41
2023-12-10T13:29:18.041Z,0.53
2023-12-10T13:30:35.103Z,0.58
2023-12-10T13:31:52.104Z,0.61
2023-12-10T13:34:26.142Z,0.44
2023-12-10T13:35:43.075Z,0.35
2023-12-10T13:37:00.115Z,0.35
2023-12-10T13:38:17.047Z,0.4
2023-12-10T13:39:34.133Z,0.61
2023-12-10T13:40:51.169Z,0.33
2023-12-10T13:42:08.011Z,0.38
2023-12-10T13:43:25.118Z,0.27
2023-12-10T13:44:42.038Z,0.31
2023-12-10T13:45:59.193Z,0.41
2023-12-10T13:47:16.087Z,0.39
2023-12-10T13:48:33.229Z,0.48
2023-12-10T13:49:50.190Z,0.43
2023-12-10T13:51:07.311Z,0.43
2023-12-10T13:52:24.077Z,0.34
2023-12-10T13:53:41.032Z,0.39
2023-12-10T13:54:58.197Z,0.5
2023-12-10T13:56:15.076Z,0.55
2023-12-10T13:57:32.579Z,0.67
2023-12-10T13:58:49.014Z,1.05
2023-12-10T14:00:06.087Z,0.83
2023-12-10T14:01:23.202Z,0.53
2023-12-10T14:02:40.143Z,0.74
2023-12-10T14:03:57.327Z,0.76
2023-12-10T14:05:14.232Z,0.83
2023-12-10T14:06:31.139Z,0.83
2023-12-10T14:07:48.147Z,0.9
2023-12-10T14:09:05.148Z,0.89
2023-12-10T14:10:22.167Z,0.74
2023-12-10T14:11:43.328Z,0.55
2023-12-10T14:12:56.124Z,0.63
2023-12-10T14:14:14.830Z,0.45
2023-12-10T14:15:30.250Z,0.8
2023-12-10T14:16:47.167Z,0.53
2023-12-10T14:18:04.429Z,0.31
2023-12-10T14:19:21.142Z,0.33
2023-12-10T14:20:38.182Z,0.43
2023-12-10T14:21:55.194Z,0.5
2023-12-10T14:23:12.141Z,0.51
2023-12-10T14:24:29.218Z,0.78
2023-12-10T14:25:46.191Z,0.56
2023-12-10T14:27:03.131Z,0.94
2023-12-10T14:28:20.174Z,0.64
2023-12-10T14:29:37.077Z,0.66
2023-12-10T14:30:54.093Z,1.11
2023-12-10T14:32:11.164Z,0.72
2023-12-10T14:33:28.356Z,0.53
2023-12-10T14:34:45.294Z,0.74
2023-12-10T14:36:02.141Z,0.7
2023-12-10T14:37:19.111Z,0.72
2023-12-10T14:38:36.217Z,0.74
2023-12-10T14:39:53.193Z,0.74
2023-12-10T14:41:10.214Z,0.6
2023-12-10T14:42:27.168Z,0.53
2023-12-10T14:43:44.201Z,0.63
2023-12-10T14:45:01.108Z,0.5
2023-12-10T14:46:18.247Z,0.58
2023-12-10T14:47:35.260Z,0.46
2023-12-10T14:48:52.358Z,0.33
2023-12-10T14:50:09.229Z,0.34
2023-12-10T14:51:26.295Z,0.38
2023-12-10T14:52:43.134Z,0.61
2023-12-10T14:54:00.435Z,0.37
2023-12-10T14:55:19.406Z,0.39
2023-12-10T14:56:34.308Z,0.49
2023-12-10T14:57:51.464Z,0.51
2023-12-10T14:59:08.245Z,0.44
2023-12-10T15:00:25.839Z,0.57
2023-12-10T15:01:42.340Z,0.42
2023-12-10T15:02:59.186Z,0.7
2023-12-10T15:04:16.296Z,0.65
2023-12-10T15:05:33.219Z,0.73
2023-12-10T15:06:50.318Z,0.86
2023-12-10T15:08:07.141Z,0.78
2023-12-10T15:09:24.718Z,0.79
2023-12-10T15:10:42.546Z,0.83
2023-12-10T15:11:59.155Z,0.82
2023-12-10T15:13:16.227Z,0.78
2023-12-10T15:14:33.600Z,0.61
2023-12-10T15:15:50.287Z,0.25
2023-12-10T15:17:07.213Z,0.4
2023-12-10T15:18:24.338Z,0.36
2023-12-10T15:19:41.393Z,0.33
2023-12-10T15:20:58.196Z,0.46
2023-12-10T15:22:15.194Z,0.61
2023-12-10T15:23:32.284Z,0.41
2023-12-10T15:24:49.368Z,0.54
2023-12-10T15:26:06.291Z,0.69
2023-12-10T15:27:23.398Z,0.52
2023-12-10T15:28:40.243Z,0.43
2023-12-10T15:29:57.293Z,0.37
2023-12-10T15:31:14.384Z,0.35
2023-12-10T15:32:31.252Z,0.44
2023-12-10T15:33:48.277Z,0.34
2023-12-10T15:35:05.276Z,0.4
2023-12-10T15:36:22.346Z,1
2023-12-10T15:37:39.317Z,0.47
2023-12-10T15:38:56.214Z,0.49
2023-12-10T15:40:13.223Z,0.52
2023-12-10T15:41:30.292Z,0.56
2023-12-10T15:42:47.256Z,0.86
2023-12-10T15:44:04.227Z,0.5
2023-12-10T15:45:21.386Z,0.41
2023-12-10T15:46:38.666Z,0.47
2023-12-10T15:47:55.367Z,0.48
2023-12-10T15:49:12.273Z,0.32
2023-12-10T15:50:29.266Z,0.49
2023-12-10T15:51:46.404Z,0.32
2023-12-10T15:53:03.428Z,0.14
2023-12-10T15:54:23.393Z,0.61
2023-12-10T15:55:40.226Z,0.11
2023-12-10T15:56:57.256Z,0
2023-12-10T15:58:14.327Z,0.26
2023-12-10T15:59:31.196Z,0.38
2023-12-10T16:00:48.424Z,0.44
2023-12-10T16:02:05.364Z,0.56
2023-12-10T16:03:22.354Z,0.55
2023-12-10T16:04:39.345Z,0.52
2023-12-10T16:05:56.416Z,0.5
2023-12-10T16:07:16.555Z,0.52
2023-12-10T16:08:30.662Z,0.79
2023-12-10T16:09:48.349Z,0.9
2023-12-10T16:11:05.279Z,1.05
2023-12-10T16:12:22.396Z,0.56
2023-12-10T16:13:39.207Z,0.55
2023-12-10T16:14:56.226Z,1.06
2023-12-10T16:16:13.512Z,1.02
2023-12-10T16:17:30.582Z,1.14
2023-12-10T16:18:48.155Z,0.96
2023-12-10T16:20:04.486Z,1.08
2023-12-10T16:21:21.363Z,0.94
2023-12-10T16:22:38.515Z,0.73
2023-12-10T16:23:55.249Z,0.61
2023-12-10T16:25:12.757Z,0.8
2023-12-10T16:26:29.429Z,0.63
2023-12-10T16:27:46.380Z,0.92
2023-12-10T16:29:03.388Z,0.85
2023-12-10T16:30:20.630Z,0.93
2023-12-10T16:31:37.308Z,0.95
2023-12-10T16:32:54.410Z,0.92
2023-12-10T16:34:11.464Z,1.31
2023-12-10T16:35:28.507Z,1.33
2023-12-10T16:36:45.421Z,0.74
2023-12-10T16:38:02.416Z,0.87
2023-12-10T16:39:19.404Z,0.43
2023-12-10T16:40:36.474Z,0.75
2023-12-10T16:41:53.349Z,0.66
2023-12-10T16:43:10.552Z,0.95
2023-12-10T16:44:27.520Z,0.93
2023-12-10T16:45:44.450Z,0.59
2023-12-10T16:47:01.591Z,0.76
2023-12-10T16:48:18.484Z,0.76
2023-12-10T16:49:35.971Z,0.88
2023-12-10T16:50:53.283Z,0.45
2023-12-10T16:52:10.478Z,0.79
2023-12-10T16:53:27.584Z,0.77
2023-12-10T16:54:44.369Z,0.84
2023-12-10T16:56:01.363Z,0.95
2023-12-10T16:57:18.327Z,0.67
2023-12-10T16:58:35.345Z,1
2023-12-10T16:59:52.688Z,0.71
2023-12-10T17:01:09.476Z,0.44
2023-12-10T17:02:26.349Z,0.76
2023-12-10T17:03:43.547Z,1.02
2023-12-10T17:05:00.592Z,0.87
2023-12-10T17:06:17.406Z,0.66
2023-12-10T17:07:35.861Z,0.78
2023-12-10T17:08:54.399Z,0.54
2023-12-10T17:10:11.681Z,0.31
2023-12-10T17:11:28.494Z,0.7